sensor_id;sensor_type;location;lat;lon;timestamp;temperature;humidity
29321;DHT22;16323;51.130;6.612;2022-11-20T00:02:17;18.40;61.70
29321;DHT22;16323;51.130;6.612;2022-11-20T00:04:56;18.40;61.80
29321;DHT22;16323;51.130;6.612;2022-11-20T00:07:48;18.40;61.50
29321;DHT22;16323;51.130;6.612;2022-11-20T00:10:14;18.40;61.30
29321;DHT22;16323;51.130;6.612;2022-11-20T00:12:47;18.40;61.40
29321;DHT22;16323;51.130;6.612;2022-11-20T00:15:24;18.40;61.10
29321;DHT22;16323;51.130;6.612;2022-11-20T00:17:50;18.40;61.00
29321;DHT22;16323;51.130;6.612;2022-11-20T00:20:28;18.40;61.50
29321;DHT22;16323;51.130;6.612;2022-11-20T00:23:05;18.40;62.00
29321;DHT22;16323;51.130;6.612;2022-11-20T00:25:45;18.40;61.90
29321;DHT22;16323;51.130;6.612;2022-11-20T00:28:21;18.40;61.90
29321;DHT22;16323;51.130;6.612;2022-11-20T00:31:14;18.40;62.00
29321;DHT22;16323;51.130;6.612;2022-11-20T00:33:45;18.40;62.00
29321;DHT22;16323;51.130;6.612;2022-11-20T00:36:27;18.40;62.00
29321;DHT22;16323;51.130;6.612;2022-11-20T00:39:14;18.40;61.90
29321;DHT22;16323;51.130;6.612;2022-11-20T00:41:56;18.40;61.90
29321;DHT22;16323;51.130;6.612;2022-11-20T00:44:47;18.40;61.80
29321;DHT22;16323;51.130;6.612;2022-11-20T00:47:33;18.40;61.70
29321;DHT22;16323;51.130;6.612;2022-11-20T00:50:15;18.40;61.70
29321;DHT22;16323;51.130;6.612;2022-11-20T00:53:41;18.40;61.60
29321;DHT22;16323;51.130;6.612;2022-11-20T00:56:11;18.40;61.40
29321;DHT22;16323;51.130;6.612;2022-11-20T00:58:59;18.30;61.20
29321;DHT22;16323;51.130;6.612;2022-11-20T01:01:40;18.40;61.00
29321;DHT22;16323;51.130;6.612;2022-11-20T01:04:18;18.40;60.80
29321;DHT22;16323;51.130;6.612;2022-11-20T01:06:56;18.40;60.80
29321;DHT22;16323;51.130;6.612;2022-11-20T01:09:38;18.30;60.70
29321;DHT22;16323;51.130;6.612;2022-11-20T01:12:18;18.30;60.30
29321;DHT22;16323;51.130;6.612;2022-11-20T01:18:22;18.30;61.30
29321;DHT22;16323;51.130;6.612;2022-11-20T01:20:49;18.30;61.50
29321;DHT22;16323;51.130;6.612;2022-11-20T01:23:51;18.30;61.80
29321;DHT22;16323;51.130;6.612;2022-11-20T01:26:29;18.40;61.70
29321;DHT22;16323;51.130;6.612;2022-11-20T01:29:12;18.40;61.80
29321;DHT22;16323;51.130;6.612;2022-11-20T01:32:00;18.40;61.70
29321;DHT22;16323;51.130;6.612;2022-11-20T01:34:27;18.40;61.70
29321;DHT22;16323;51.130;6.612;2022-11-20T01:37:04;18.40;61.50
29321;DHT22;16323;51.130;6.612;2022-11-20T01:39:44;18.40;61.50
29321;DHT22;16323;51.130;6.612;2022-11-20T01:42:47;18.30;61.30
29321;DHT22;16323;51.130;6.612;2022-11-20T01:46:00;18.30;61.30
29321;DHT22;16323;51.130;6.612;2022-11-20T01:48:30;18.30;61.10
29321;DHT22;16323;51.130;6.612;2022-11-20T01:51:10;18.30;61.20
29321;DHT22;16323;51.130;6.612;2022-11-20T01:53:50;18.30;60.70
29321;DHT22;16323;51.130;6.612;2022-11-20T01:56:43;18.30;60.50
29321;DHT22;16323;51.130;6.612;2022-11-20T01:59:17;18.40;60.60
29321;DHT22;16323;51.130;6.612;2022-11-20T02:01:55;18.30;60.40
29321;DHT22;16323;51.130;6.612;2022-11-20T02:04:33;18.30;60.30
29321;DHT22;16323;51.130;6.612;2022-11-20T02:07:11;18.30;60.10
29321;DHT22;16323;51.130;6.612;2022-11-20T02:09:38;18.30;60.10
29321;DHT22;16323;51.130;6.612;2022-11-20T02:12:15;18.30;60.70
29321;DHT22;16323;51.130;6.612;2022-11-20T02:15:13;18.30;61.20
29321;DHT22;16323;51.130;6.612;2022-11-20T02:17:40;18.30;61.20
29321;DHT22;16323;51.130;6.612;2022-11-20T02:20:13;18.40;61.40
29321;DHT22;16323;51.130;6.612;2022-11-20T02:22:58;18.30;61.30
29321;DHT22;16323;51.130;6.612;2022-11-20T02:25:45;18.40;61.40
29321;DHT22;16323;51.130;6.612;2022-11-20T02:28:27;18.40;61.40
29321;DHT22;16323;51.130;6.612;2022-11-20T02:30:55;18.40;61.40
29321;DHT22;16323;51.130;6.612;2022-11-20T02:33:32;18.40;61.30
29321;DHT22;16323;51.130;6.612;2022-11-20T02:35:59;18.40;61.40
29321;DHT22;16323;51.130;6.612;2022-11-20T02:38:25;18.40;61.20
29321;DHT22;16323;51.130;6.612;2022-11-20T02:44:29;18.40;60.80
29321;DHT22;16323;51.130;6.612;2022-11-20T02:47:20;18.30;61.00
29321;DHT22;16323;51.130;6.612;2022-11-20T02:49:47;18.30;60.50
29321;DHT22;16323;51.130;6.612;2022-11-20T02:52:27;18.30;60.60
29321;DHT22;16323;51.130;6.612;2022-11-20T02:55:18;18.30;60.40
29321;DHT22;16323;51.130;6.612;2022-11-20T02:58:00;18.30;60.30
29321;DHT22;16323;51.130;6.612;2022-11-20T03:00:40;18.30;60.00
29321;DHT22;16323;51.130;6.612;2022-11-20T03:03:17;18.30;60.10
29321;DHT22;16323;51.130;6.612;2022-11-20T03:06:20;18.30;60.20
29321;DHT22;16323;51.130;6.612;2022-11-20T03:08:49;18.30;60.90
29321;DHT22;16323;51.130;6.612;2022-11-20T03:11:30;18.30;60.90
29321;DHT22;16323;51.130;6.612;2022-11-20T03:14:08;18.30;61.00
29321;DHT22;16323;51.130;6.612;2022-11-20T03:16:47;18.30;61.10
29321;DHT22;16323;51.130;6.612;2022-11-20T03:19:14;18.30;61.10
29321;DHT22;16323;51.130;6.612;2022-11-20T03:21:56;18.30;61.30
29321;DHT22;16323;51.130;6.612;2022-11-20T03:24:46;18.30;61.10
29321;DHT22;16323;51.130;6.612;2022-11-20T03:27:13;18.40;61.10
29321;DHT22;16323;51.130;6.612;2022-11-20T03:29:50;18.30;61.10
29321;DHT22;16323;51.130;6.612;2022-11-20T03:32:29;18.40;60.90
29321;DHT22;16323;51.130;6.612;2022-11-20T03:35:06;18.30;60.90
29321;DHT22;16323;51.130;6.612;2022-11-20T03:37:33;18.30;60.80
29321;DHT22;16323;51.130;6.612;2022-11-20T03:40:36;18.30;60.70
29321;DHT22;16323;51.130;6.612;2022-11-20T03:43:13;18.30;60.30
29321;DHT22;16323;51.130;6.612;2022-11-20T03:45:39;18.30;60.30
29321;DHT22;16323;51.130;6.612;2022-11-20T03:48:28;18.30;60.00
29321;DHT22;16323;51.130;6.612;2022-11-20T03:51:16;18.30;59.70
29321;DHT22;16323;51.130;6.612;2022-11-20T03:54:01;18.30;59.70
29321;DHT22;16323;51.130;6.612;2022-11-20T03:56:29;18.30;59.70
29321;DHT22;16323;51.130;6.612;2022-11-20T04:02:33;18.30;59.60
29321;DHT22;16323;51.130;6.612;2022-11-20T04:05:09;18.30;60.20
29321;DHT22;16323;51.130;6.612;2022-11-20T04:07:37;18.30;60.40
29321;DHT22;16323;51.130;6.612;2022-11-20T04:10:21;18.30;60.50
29321;DHT22;16323;51.130;6.612;2022-11-20T04:12:57;18.30;60.50
29321;DHT22;16323;51.130;6.612;2022-11-20T04:15:39;18.30;60.50
29321;DHT22;16323;51.130;6.612;2022-11-20T04:18:16;18.30;60.50
29321;DHT22;16323;51.130;6.612;2022-11-20T04:20:44;18.30;60.40
29321;DHT22;16323;51.130;6.612;2022-11-20T04:23:21;18.30;60.40
29321;DHT22;16323;51.130;6.612;2022-11-20T04:25:48;18.30;60.50
29321;DHT22;16323;51.130;6.612;2022-11-20T04:28:31;18.30;60.30
29321;DHT22;16323;51.130;6.612;2022-11-20T04:31:13;18.30;61.20
29321;DHT22;16323;51.130;6.612;2022-11-20T04:33:40;18.30;60.00
29321;DHT22;16323;51.130;6.612;2022-11-20T04:36:35;18.20;59.90
29321;DHT22;16323;51.130;6.612;2022-11-20T04:39:12;18.20;59.70
29321;DHT22;16323;51.130;6.612;2022-11-20T04:41:41;18.20;59.60
29321;DHT22;16323;51.130;6.612;2022-11-20T04:44:07;18.20;59.40
29321;DHT22;16323;51.130;6.612;2022-11-20T04:46:39;18.20;59.30
29321;DHT22;16323;51.130;6.612;2022-11-20T04:49:15;18.20;59.10
29321;DHT22;16323;51.130;6.612;2022-11-20T04:51:43;18.20;58.90
29321;DHT22;16323;51.130;6.612;2022-11-20T04:54:29;18.20;58.80
29321;DHT22;16323;51.130;6.612;2022-11-20T04:57:07;18.20;58.50
29321;DHT22;16323;51.130;6.612;2022-11-20T05:00:03;18.20;59.30
29321;DHT22;16323;51.130;6.612;2022-11-20T05:02:31;18.20;59.50
29321;DHT22;16323;51.130;6.612;2022-11-20T05:05:08;18.20;60.00
29321;DHT22;16323;51.130;6.612;2022-11-20T05:07:49;18.20;59.90
29321;DHT22;16323;51.130;6.612;2022-11-20T05:10:18;18.20;59.90
29321;DHT22;16323;51.130;6.612;2022-11-20T05:12:57;18.20;59.70
29321;DHT22;16323;51.130;6.612;2022-11-20T05:15:42;18.20;59.80
29321;DHT22;16323;51.130;6.612;2022-11-20T05:18:09;18.20;59.60
29321;DHT22;16323;51.130;6.612;2022-11-20T05:24:19;18.30;59.60
29321;DHT22;16323;51.130;6.612;2022-11-20T05:27:00;18.20;59.30
29321;DHT22;16323;51.130;6.612;2022-11-20T05:29:27;18.20;59.20
29321;DHT22;16323;51.130;6.612;2022-11-20T05:32:14;18.20;59.30
29321;DHT22;16323;51.130;6.612;2022-11-20T05:34:52;18.20;58.70
29321;DHT22;16323;51.130;6.612;2022-11-20T05:37:19;18.20;58.50
29321;DHT22;16323;51.130;6.612;2022-11-20T05:40:00;18.20;58.50
29321;DHT22;16323;51.130;6.612;2022-11-20T05:42:36;18.20;58.50
29321;DHT22;16323;51.130;6.612;2022-11-20T05:45:04;18.20;58.70
29321;DHT22;16323;51.130;6.612;2022-11-20T05:47:44;18.20;59.00
29321;DHT22;16323;51.130;6.612;2022-11-20T05:50:19;18.20;58.00
29321;DHT22;16323;51.130;6.612;2022-11-20T05:53:00;18.20;58.10
29321;DHT22;16323;51.130;6.612;2022-11-20T05:56:03;18.20;58.50
29321;DHT22;16323;51.130;6.612;2022-11-20T05:58:41;18.20;59.00
29321;DHT22;16323;51.130;6.612;2022-11-20T06:01:11;18.20;59.10
29321;DHT22;16323;51.130;6.612;2022-11-20T06:03:41;18.20;59.20
29321;DHT22;16323;51.130;6.612;2022-11-20T06:06:19;18.20;59.10
29321;DHT22;16323;51.130;6.612;2022-11-20T06:09:03;18.20;59.10
29321;DHT22;16323;51.130;6.612;2022-11-20T06:11:41;18.30;59.10
29321;DHT22;16323;51.130;6.612;2022-11-20T06:14:09;18.30;59.10
29321;DHT22;16323;51.130;6.612;2022-11-20T06:16:36;18.30;59.00
29321;DHT22;16323;51.130;6.612;2022-11-20T06:19:13;18.30;59.10
29321;DHT22;16323;51.130;6.612;2022-11-20T06:21:41;18.30;59.00
29321;DHT22;16323;51.130;6.612;2022-11-20T06:24:18;18.30;58.70
29321;DHT22;16323;51.130;6.612;2022-11-20T06:26:55;18.20;58.50
29321;DHT22;16323;51.130;6.612;2022-11-20T06:29:35;18.20;58.40
29321;DHT22;16323;51.130;6.612;2022-11-20T06:32:17;18.20;58.10
29321;DHT22;16323;51.130;6.612;2022-11-20T06:34:44;18.20;58.00
29321;DHT22;16323;51.130;6.612;2022-11-20T06:37:18;18.20;57.90
29321;DHT22;16323;51.130;6.612;2022-11-20T06:42:36;18.20;57.40
29321;DHT22;16323;51.130;6.612;2022-11-20T06:45:21;18.20;57.30
29321;DHT22;16323;51.130;6.612;2022-11-20T06:48:05;18.20;56.90
29321;DHT22;16323;51.130;6.612;2022-11-20T06:51:03;18.20;57.50
29321;DHT22;16323;51.130;6.612;2022-11-20T06:53:30;18.20;58.10
29321;DHT22;16323;51.130;6.612;2022-11-20T06:56:08;18.20;58.30
29321;DHT22;16323;51.130;6.612;2022-11-20T06:58:48;18.20;58.40
29321;DHT22;16323;51.130;6.612;2022-11-20T07:01:26;18.20;58.30
29321;DHT22;16323;51.130;6.612;2022-11-20T07:03:54;18.20;58.20
29321;DHT22;16323;51.130;6.612;2022-11-20T07:06:20;18.20;58.30
29321;DHT22;16323;51.130;6.612;2022-11-20T07:09:35;18.20;58.30
29321;DHT22;16323;51.130;6.612;2022-11-20T07:12:02;18.20;58.20
29321;DHT22;16323;51.130;6.612;2022-11-20T07:14:31;18.20;58.30
29321;DHT22;16323;51.130;6.612;2022-11-20T07:17:33;18.20;57.90
29321;DHT22;16323;51.130;6.612;2022-11-20T07:23:48;18.20;57.50
29321;DHT22;16323;51.130;6.612;2022-11-20T07:26:32;18.20;57.40
29321;DHT22;16323;51.130;6.612;2022-11-20T07:28:59;18.20;57.20
29321;DHT22;16323;51.130;6.612;2022-11-20T07:31:41;18.20;57.50
29321;DHT22;16323;51.130;6.612;2022-11-20T07:34:08;18.20;57.00
29321;DHT22;16323;51.130;6.612;2022-11-20T07:36:49;18.10;56.90
29321;DHT22;16323;51.130;6.612;2022-11-20T07:42:47;18.10;56.60
29321;DHT22;16323;51.130;6.612;2022-11-20T07:45:20;18.10;57.20
29321;DHT22;16323;51.130;6.612;2022-11-20T07:47:49;18.10;57.40
29321;DHT22;16323;51.130;6.612;2022-11-20T07:50:17;18.20;57.70
29321;DHT22;16323;51.130;6.612;2022-11-20T07:53:04;18.20;57.60
29321;DHT22;16323;51.130;6.612;2022-11-20T07:55:31;18.20;57.40
29321;DHT22;16323;51.130;6.612;2022-11-20T07:58:16;18.20;57.60
29321;DHT22;16323;51.130;6.612;2022-11-20T08:00:43;18.20;57.60
29321;DHT22;16323;51.130;6.612;2022-11-20T08:03:11;18.20;57.50
29321;DHT22;16323;51.130;6.612;2022-11-20T08:05:39;18.20;57.30
29321;DHT22;16323;51.130;6.612;2022-11-20T08:08:06;18.10;55.50
29321;DHT22;16323;51.130;6.612;2022-11-20T08:10:33;18.20;55.80
29321;DHT22;16323;51.130;6.612;2022-11-20T08:13:00;18.20;55.50
29321;DHT22;16323;51.130;6.612;2022-11-20T08:15:48;18.20;54.80
29321;DHT22;16323;51.130;6.612;2022-11-20T08:18:17;18.20;54.00
29321;DHT22;16323;51.130;6.612;2022-11-20T08:20:45;18.10;53.20
29321;DHT22;16323;51.130;6.612;2022-11-20T08:23:11;18.10;53.30
29321;DHT22;16323;51.130;6.612;2022-11-20T08:25:38;18.10;52.30
29321;DHT22;16323;51.130;6.612;2022-11-20T08:28:07;18.10;52.70
29321;DHT22;16323;51.130;6.612;2022-11-20T08:30:35;18.00;52.20
29321;DHT22;16323;51.130;6.612;2022-11-20T08:33:03;18.00;52.60
29321;DHT22;16323;51.130;6.612;2022-11-20T08:35:34;18.00;52.20
29321;DHT22;16323;51.130;6.612;2022-11-20T08:38:01;18.00;52.20
29321;DHT22;16323;51.130;6.612;2022-11-20T08:40:28;17.90;52.20
29321;DHT22;16323;51.130;6.612;2022-11-20T08:42:55;17.90;53.20
29321;DHT22;16323;51.130;6.612;2022-11-20T08:45:22;17.90;53.90
29321;DHT22;16323;51.130;6.612;2022-11-20T08:47:49;17.90;54.80
29321;DHT22;16323;51.130;6.612;2022-11-20T08:50:16;17.90;54.20
29321;DHT22;16323;51.130;6.612;2022-11-20T08:52:44;17.90;54.20
29321;DHT22;16323;51.130;6.612;2022-11-20T08:55:11;18.00;54.20
29321;DHT22;16323;51.130;6.612;2022-11-20T08:57:38;18.00;54.50
29321;DHT22;16323;51.130;6.612;2022-11-20T09:00:07;18.00;54.10
29321;DHT22;16323;51.130;6.612;2022-11-20T09:02:34;18.00;54.50
29321;DHT22;16323;51.130;6.612;2022-11-20T09:05:01;18.00;54.70
29321;DHT22;16323;51.130;6.612;2022-11-20T09:07:29;18.10;54.90
29321;DHT22;16323;51.130;6.612;2022-11-20T09:09:57;18.10;54.90
29321;DHT22;16323;51.130;6.612;2022-11-20T09:12:24;18.10;55.10
29321;DHT22;16323;51.130;6.612;2022-11-20T09:14:50;18.10;55.10
29321;DHT22;16323;51.130;6.612;2022-11-20T09:17:17;18.10;55.40
29321;DHT22;16323;51.130;6.612;2022-11-20T09:19:45;18.10;55.40
29321;DHT22;16323;51.130;6.612;2022-11-20T09:22:12;18.10;55.30
29321;DHT22;16323;51.130;6.612;2022-11-20T09:24:39;18.10;55.50
29321;DHT22;16323;51.130;6.612;2022-11-20T09:27:08;18.10;55.40
29321;DHT22;16323;51.130;6.612;2022-11-20T09:29:35;18.10;55.50
29321;DHT22;16323;51.130;6.612;2022-11-20T09:32:02;18.10;55.60
29321;DHT22;16323;51.130;6.612;2022-11-20T09:34:29;18.10;55.80
29321;DHT22;16323;51.130;6.612;2022-11-20T09:36:56;18.10;56.10
29321;DHT22;16323;51.130;6.612;2022-11-20T09:39:23;18.10;56.10
29321;DHT22;16323;51.130;6.612;2022-11-20T09:42:05;18.10;56.30
29321;DHT22;16323;51.130;6.612;2022-11-20T09:44:56;18.10;56.30
29321;DHT22;16323;51.130;6.612;2022-11-20T09:47:37;18.10;56.50
29321;DHT22;16323;51.130;6.612;2022-11-20T09:50:23;18.20;56.70
29321;DHT22;16323;51.130;6.612;2022-11-20T09:53:03;18.20;56.80
29321;DHT22;16323;51.130;6.612;2022-11-20T09:55:34;18.20;57.00
29321;DHT22;16323;51.130;6.612;2022-11-20T09:58:06;18.20;56.80
29321;DHT22;16323;51.130;6.612;2022-11-20T10:00:35;18.20;57.10
29321;DHT22;16323;51.130;6.612;2022-11-20T10:03:13;18.20;57.00
29321;DHT22;16323;51.130;6.612;2022-11-20T10:05:44;18.20;57.00
29321;DHT22;16323;51.130;6.612;2022-11-20T10:08:17;18.20;57.10
29321;DHT22;16323;51.130;6.612;2022-11-20T10:10:49;18.20;57.10
29321;DHT22;16323;51.130;6.612;2022-11-20T10:13:36;18.20;57.40
29321;DHT22;16323;51.130;6.612;2022-11-20T10:16:19;18.20;57.30
29321;DHT22;16323;51.130;6.612;2022-11-20T10:18:58;18.20;57.40
29321;DHT22;16323;51.130;6.612;2022-11-20T10:21:35;18.20;57.40
29321;DHT22;16323;51.130;6.612;2022-11-20T10:24:29;18.20;57.60
29321;DHT22;16323;51.130;6.612;2022-11-20T10:27:09;18.20;57.70
29321;DHT22;16323;51.130;6.612;2022-11-20T10:29:48;18.20;57.70
29321;DHT22;16323;51.130;6.612;2022-11-20T10:32:20;18.20;58.20
29321;DHT22;16323;51.130;6.612;2022-11-20T10:34:57;18.20;58.10
29321;DHT22;16323;51.130;6.612;2022-11-20T10:37:28;18.20;58.00
29321;DHT22;16323;51.130;6.612;2022-11-20T10:40:00;18.20;58.10
29321;DHT22;16323;51.130;6.612;2022-11-20T10:42:31;18.20;58.10
29321;DHT22;16323;51.130;6.612;2022-11-20T10:45:09;18.20;58.10
29321;DHT22;16323;51.130;6.612;2022-11-20T10:47:41;18.20;58.20
29321;DHT22;16323;51.130;6.612;2022-11-20T10:50:13;18.20;58.20
29321;DHT22;16323;51.130;6.612;2022-11-20T10:52:47;18.20;58.20
29321;DHT22;16323;51.130;6.612;2022-11-20T10:55:26;18.20;58.40
29321;DHT22;16323;51.130;6.612;2022-11-20T10:58:01;18.20;59.20
29321;DHT22;16323;51.130;6.612;2022-11-20T11:00:32;18.30;62.10
29321;DHT22;16323;51.130;6.612;2022-11-20T11:03:00;18.30;62.50
29321;DHT22;16323;51.130;6.612;2022-11-20T11:05:34;18.30;62.80
29321;DHT22;16323;51.130;6.612;2022-11-20T11:08:03;18.30;62.90
29321;DHT22;16323;51.130;6.612;2022-11-20T11:10:38;18.30;63.10
29321;DHT22;16323;51.130;6.612;2022-11-20T11:13:07;18.40;63.20
29321;DHT22;16323;51.130;6.612;2022-11-20T11:15:45;18.40;63.30
29321;DHT22;16323;51.130;6.612;2022-11-20T11:18:23;18.40;63.50
29321;DHT22;16323;51.130;6.612;2022-11-20T11:20:51;18.40;63.60
29321;DHT22;16323;51.130;6.612;2022-11-20T11:23:31;18.40;63.30
29321;DHT22;16323;51.130;6.612;2022-11-20T11:26:00;18.40;64.00
29321;DHT22;16323;51.130;6.612;2022-11-20T11:28:27;18.40;64.20
29321;DHT22;16323;51.130;6.612;2022-11-20T11:30:55;18.40;64.00
29321;DHT22;16323;51.130;6.612;2022-11-20T11:33:25;18.50;64.00
29321;DHT22;16323;51.130;6.612;2022-11-20T11:35:54;18.40;63.60
29321;DHT22;16323;51.130;6.612;2022-11-20T11:38:29;18.40;63.20
29321;DHT22;16323;51.130;6.612;2022-11-20T11:40:56;18.40;62.90
29321;DHT22;16323;51.130;6.612;2022-11-20T11:43:25;18.40;62.80
29321;DHT22;16323;51.130;6.612;2022-11-20T11:46:25;18.40;62.60
29321;DHT22;16323;51.130;6.612;2022-11-20T11:48:59;18.40;62.40
29321;DHT22;16323;51.130;6.612;2022-11-20T11:51:33;18.40;62.30
29321;DHT22;16323;51.130;6.612;2022-11-20T11:54:03;18.30;62.30
29321;DHT22;16323;51.130;6.612;2022-11-20T11:56:33;18.30;62.10
29321;DHT22;16323;51.130;6.612;2022-11-20T11:59:05;18.30;62.30
29321;DHT22;16323;51.130;6.612;2022-11-20T12:01:36;18.30;62.10
29321;DHT22;16323;51.130;6.612;2022-11-20T12:04:15;18.30;62.10
29321;DHT22;16323;51.130;6.612;2022-11-20T12:06:45;18.30;62.00
29321;DHT22;16323;51.130;6.612;2022-11-20T12:09:16;18.30;61.90
29321;DHT22;16323;51.130;6.612;2022-11-20T12:11:48;18.30;62.00
29321;DHT22;16323;51.130;6.612;2022-11-20T12:14:20;18.20;61.80
29321;DHT22;16323;51.130;6.612;2022-11-20T12:16:49;18.20;61.70
29321;DHT22;16323;51.130;6.612;2022-11-20T12:19:19;18.20;61.80
29321;DHT22;16323;51.130;6.612;2022-11-20T12:21:55;18.20;61.90
29321;DHT22;16323;51.130;6.612;2022-11-20T12:24:39;18.20;61.90
29321;DHT22;16323;51.130;6.612;2022-11-20T12:27:33;18.20;62.00
29321;DHT22;16323;51.130;6.612;2022-11-20T12:30:06;18.20;62.00
29321;DHT22;16323;51.130;6.612;2022-11-20T12:32:55;18.20;62.00
29321;DHT22;16323;51.130;6.612;2022-11-20T12:35:42;18.20;62.00
29321;DHT22;16323;51.130;6.612;2022-11-20T12:38:30;18.20;62.00
29321;DHT22;16323;51.130;6.612;2022-11-20T12:41:05;18.20;62.00
29321;DHT22;16323;51.130;6.612;2022-11-20T12:43:43;18.20;62.00
29321;DHT22;16323;51.130;6.612;2022-11-20T12:46:37;18.30;62.40
29321;DHT22;16323;51.130;6.612;2022-11-20T12:49:25;18.30;64.90
29321;DHT22;16323;51.130;6.612;2022-11-20T12:55:10;18.30;65.10
29321;DHT22;16323;51.130;6.612;2022-11-20T12:57:45;18.30;65.00
29321;DHT22;16323;51.130;6.612;2022-11-20T13:00:17;18.40;65.20
29321;DHT22;16323;51.130;6.612;2022-11-20T13:03:05;18.40;65.30
29321;DHT22;16323;51.130;6.612;2022-11-20T13:05:39;18.40;65.30
29321;DHT22;16323;51.130;6.612;2022-11-20T13:08:14;18.30;65.20
29321;DHT22;16323;51.130;6.612;2022-11-20T13:10:46;18.40;65.40
29321;DHT22;16323;51.130;6.612;2022-11-20T13:13:19;18.40;65.40
29321;DHT22;16323;51.130;6.612;2022-11-20T13:15:53;18.40;65.30
29321;DHT22;16323;51.130;6.612;2022-11-20T13:18:21;18.30;65.40
29321;DHT22;16323;51.130;6.612;2022-11-20T13:20:48;18.30;65.60
29321;DHT22;16323;51.130;6.612;2022-11-20T13:23:27;18.30;65.50
29321;DHT22;16323;51.130;6.612;2022-11-20T13:26:06;18.40;65.70
29321;DHT22;16323;51.130;6.612;2022-11-20T13:28:33;18.40;65.70
29321;DHT22;16323;51.130;6.612;2022-11-20T13:31:00;18.40;65.70
29321;DHT22;16323;51.130;6.612;2022-11-20T13:33:30;18.40;65.70
29321;DHT22;16323;51.130;6.612;2022-11-20T13:35:59;18.40;65.80
29321;DHT22;16323;51.130;6.612;2022-11-20T13:38:39;18.40;65.70
29321;DHT22;16323;51.130;6.612;2022-11-20T13:41:08;18.40;65.80
29321;DHT22;16323;51.130;6.612;2022-11-20T13:43:49;18.40;65.90
29321;DHT22;16323;51.130;6.612;2022-11-20T13:46:16;18.40;65.80
29321;DHT22;16323;51.130;6.612;2022-11-20T13:48:50;18.30;65.80
29321;DHT22;16323;51.130;6.612;2022-11-20T13:51:28;18.30;65.90
29321;DHT22;16323;51.130;6.612;2022-11-20T13:54:34;18.30;66.00
29321;DHT22;16323;51.130;6.612;2022-11-20T13:57:25;18.30;65.90
29321;DHT22;16323;51.130;6.612;2022-11-20T13:59:58;18.30;66.10
29321;DHT22;16323;51.130;6.612;2022-11-20T14:02:29;18.30;66.10
29321;DHT22;16323;51.130;6.612;2022-11-20T14:04:57;18.30;66.00
29321;DHT22;16323;51.130;6.612;2022-11-20T14:07:27;18.30;66.10
29321;DHT22;16323;51.130;6.612;2022-11-20T14:09:59;18.30;65.80
29321;DHT22;16323;51.130;6.612;2022-11-20T14:12:29;18.40;66.30
29321;DHT22;16323;51.130;6.612;2022-11-20T14:14:56;18.40;66.40
29321;DHT22;16323;51.130;6.612;2022-11-20T14:17:29;18.40;66.30
29321;DHT22;16323;51.130;6.612;2022-11-20T14:19:59;18.40;66.30
29321;DHT22;16323;51.130;6.612;2022-11-20T14:22:27;18.40;66.20
29321;DHT22;16323;51.130;6.612;2022-11-20T14:25:05;18.40;66.10
29321;DHT22;16323;51.130;6.612;2022-11-20T14:27:34;18.40;66.10
29321;DHT22;16323;51.130;6.612;2022-11-20T14:30:04;18.40;66.10
29321;DHT22;16323;51.130;6.612;2022-11-20T14:32:31;18.40;66.10
29321;DHT22;16323;51.130;6.612;2022-11-20T14:35:06;18.40;66.30
29321;DHT22;16323;51.130;6.612;2022-11-20T14:37:37;18.40;66.30
29321;DHT22;16323;51.130;6.612;2022-11-20T14:40:23;18.40;66.20
29321;DHT22;16323;51.130;6.612;2022-11-20T14:42:50;18.40;66.30
29321;DHT22;16323;51.130;6.612;2022-11-20T14:45:17;18.40;66.30
29321;DHT22;16323;51.130;6.612;2022-11-20T14:47:45;18.30;66.20
29321;DHT22;16323;51.130;6.612;2022-11-20T14:50:15;18.40;66.20
29321;DHT22;16323;51.130;6.612;2022-11-20T14:52:50;18.30;66.10
29321;DHT22;16323;51.130;6.612;2022-11-20T14:55:28;18.40;66.20
29321;DHT22;16323;51.130;6.612;2022-11-20T14:57:56;18.30;66.30
29321;DHT22;16323;51.130;6.612;2022-11-20T15:00:24;18.30;66.00
29321;DHT22;16323;51.130;6.612;2022-11-20T15:02:52;18.40;66.70
29321;DHT22;16323;51.130;6.612;2022-11-20T15:05:21;18.40;66.40
29321;DHT22;16323;51.130;6.612;2022-11-20T15:07:50;18.40;65.70
29321;DHT22;16323;51.130;6.612;2022-11-20T15:10:22;18.30;65.40
29321;DHT22;16323;51.130;6.612;2022-11-20T15:12:52;18.30;65.50
29321;DHT22;16323;51.130;6.612;2022-11-20T15:15:30;18.30;64.90
29321;DHT22;16323;51.130;6.612;2022-11-20T15:17:58;18.30;64.80
29321;DHT22;16323;51.130;6.612;2022-11-20T15:20:29;18.30;64.70
29321;DHT22;16323;51.130;6.612;2022-11-20T15:22:57;18.30;64.70
29321;DHT22;16323;51.130;6.612;2022-11-20T15:25:24;18.30;64.50
29321;DHT22;16323;51.130;6.612;2022-11-20T15:27:55;18.30;64.60
29321;DHT22;16323;51.130;6.612;2022-11-20T15:30:22;18.30;64.40
29321;DHT22;16323;51.130;6.612;2022-11-20T15:32:49;18.30;65.20
29321;DHT22;16323;51.130;6.612;2022-11-20T15:35:16;18.40;65.20
29321;DHT22;16323;51.130;6.612;2022-11-20T15:37:43;18.40;65.30
29321;DHT22;16323;51.130;6.612;2022-11-20T15:40:11;18.50;67.00
29321;DHT22;16323;51.130;6.612;2022-11-20T15:42:37;18.50;65.80
29321;DHT22;16323;51.130;6.612;2022-11-20T15:45:26;18.40;65.90
29321;DHT22;16323;51.130;6.612;2022-11-20T15:47:53;18.40;66.40
29321;DHT22;16323;51.130;6.612;2022-11-20T15:50:21;18.40;66.40
29321;DHT22;16323;51.130;6.612;2022-11-20T15:52:48;18.40;66.60
29321;DHT22;16323;51.130;6.612;2022-11-20T15:55:16;18.30;66.50
29321;DHT22;16323;51.130;6.612;2022-11-20T15:57:42;18.40;66.60
29321;DHT22;16323;51.130;6.612;2022-11-20T16:00:10;18.40;66.70
29321;DHT22;16323;51.130;6.612;2022-11-20T16:02:39;18.40;66.80
29321;DHT22;16323;51.130;6.612;2022-11-20T16:05:10;18.40;66.60
29321;DHT22;16323;51.130;6.612;2022-11-20T16:07:37;18.40;66.80
29321;DHT22;16323;51.130;6.612;2022-11-20T16:10:04;18.40;66.80
29321;DHT22;16323;51.130;6.612;2022-11-20T16:12:31;18.40;66.90
29321;DHT22;16323;51.130;6.612;2022-11-20T16:15:16;18.40;66.90
29321;DHT22;16323;51.130;6.612;2022-11-20T16:18:01;18.40;67.10
29321;DHT22;16323;51.130;6.612;2022-11-20T16:20:28;18.40;67.00
29321;DHT22;16323;51.130;6.612;2022-11-20T16:22:55;18.40;67.20
29321;DHT22;16323;51.130;6.612;2022-11-20T16:25:22;18.30;67.30
29321;DHT22;16323;51.130;6.612;2022-11-20T16:27:49;18.30;67.30
29321;DHT22;16323;51.130;6.612;2022-11-20T16:30:15;18.30;67.20
29321;DHT22;16323;51.130;6.612;2022-11-20T16:32:42;18.30;67.20
29321;DHT22;16323;51.130;6.612;2022-11-20T16:35:10;18.40;67.50
29321;DHT22;16323;51.130;6.612;2022-11-20T16:37:37;18.30;67.50
29321;DHT22;16323;51.130;6.612;2022-11-20T16:40:05;18.40;67.40
29321;DHT22;16323;51.130;6.612;2022-11-20T16:42:33;18.30;67.20
29321;DHT22;16323;51.130;6.612;2022-11-20T16:45:00;18.30;67.40
29321;DHT22;16323;51.130;6.612;2022-11-20T16:47:27;18.30;67.40